sensor_id;sensor_type;location;lat;lon;timestamp;temperature;humidity
40556;DHT22;26250;45.422;11.100;2024-02-26T00:01:05;9.40;99.90
40556;DHT22;26250;45.422;11.100;2024-02-26T00:03:32;9.40;99.90
40556;DHT22;26250;45.422;11.100;2024-02-26T00:06:02;9.40;99.90
40556;DHT22;26250;45.422;11.100;2024-02-26T00:08:29;9.40;99.90
40556;DHT22;26250;45.422;11.100;2024-02-26T00:10:56;9.50;99.90
40556;DHT22;26250;45.422;11.100;2024-02-26T00:13:23;9.50;99.90
40556;DHT22;26250;45.422;11.100;2024-02-26T00:15:50;9.50;99.90
40556;DHT22;26250;45.422;11.100;2024-02-26T00:18:17;9.50;99.90
40556;DHT22;26250;45.422;11.100;2024-02-26T00:20:44;9.50;99.90
40556;DHT22;26250;45.422;11.100;2024-02-26T00:23:11;9.60;99.90
40556;DHT22;26250;45.422;11.100;2024-02-26T00:25:38;9.50;99.90
40556;DHT22;26250;45.422;11.100;2024-02-26T00:28:05;9.60;99.90
40556;DHT22;26250;45.422;11.100;2024-02-26T00:30:32;9.30;99.90
40556;DHT22;26250;45.422;11.100;2024-02-26T00:32:59;9.40;99.90
40556;DHT22;26250;45.422;11.100;2024-02-26T00:35:26;9.50;99.90
40556;DHT22;26250;45.422;11.100;2024-02-26T00:37:53;9.50;99.90
40556;DHT22;26250;45.422;11.100;2024-02-26T00:40:20;9.40;99.90
40556;DHT22;26250;45.422;11.100;2024-02-26T00:42:47;9.50;99.90
40556;DHT22;26250;45.422;11.100;2024-02-26T00:45:14;9.50;99.90
40556;DHT22;26250;45.422;11.100;2024-02-26T00:47:43;9.50;99.90
40556;DHT22;26250;45.422;11.100;2024-02-26T00:50:11;9.40;99.90
40556;DHT22;26250;45.422;11.100;2024-02-26T00:52:38;9.40;99.90
40556;DHT22;26250;45.422;11.100;2024-02-26T00:55:06;9.60;99.90
40556;DHT22;26250;45.422;11.100;2024-02-26T00:57:33;9.50;99.90
40556;DHT22;26250;45.422;11.100;2024-02-26T01:00:00;9.40;99.90
40556;DHT22;26250;45.422;11.100;2024-02-26T01:02:27;9.40;99.90
40556;DHT22;26250;45.422;11.100;2024-02-26T01:04:54;9.50;99.90
40556;DHT22;26250;45.422;11.100;2024-02-26T01:07:21;9.50;99.90
40556;DHT22;26250;45.422;11.100;2024-02-26T01:09:49;9.50;99.90
40556;DHT22;26250;45.422;11.100;2024-02-26T01:12:16;9.50;99.90
40556;DHT22;26250;45.422;11.100;2024-02-26T01:14:43;9.50;99.90
40556;DHT22;26250;45.422;11.100;2024-02-26T01:17:10;9.70;99.90
40556;DHT22;26250;45.422;11.100;2024-02-26T01:19:36;9.70;99.90
40556;DHT22;26250;45.422;11.100;2024-02-26T01:22:03;9.70;99.90
40556;DHT22;26250;45.422;11.100;2024-02-26T01:24:30;9.60;99.90
40556;DHT22;26250;45.422;11.100;2024-02-26T01:26:57;9.70;99.90
40556;DHT22;26250;45.422;11.100;2024-02-26T01:29:24;9.70;99.90
40556;DHT22;26250;45.422;11.100;2024-02-26T01:31:51;9.60;99.90
40556;DHT22;26250;45.422;11.100;2024-02-26T01:34:18;9.50;99.90
40556;DHT22;26250;45.422;11.100;2024-02-26T01:36:45;9.50;99.90
40556;DHT22;26250;45.422;11.100;2024-02-26T01:39:12;9.40;99.90
40556;DHT22;26250;45.422;11.100;2024-02-26T01:41:40;9.40;99.90
40556;DHT22;26250;45.422;11.100;2024-02-26T01:44:07;9.40;99.90
40556;DHT22;26250;45.422;11.100;2024-02-26T01:46:35;9.30;99.90
40556;DHT22;26250;45.422;11.100;2024-02-26T01:49:02;9.30;99.90
40556;DHT22;26250;45.422;11.100;2024-02-26T01:51:31;9.20;99.90
40556;DHT22;26250;45.422;11.100;2024-02-26T01:54:00;9.20;99.90
40556;DHT22;26250;45.422;11.100;2024-02-26T01:56:29;9.10;99.90
40556;DHT22;26250;45.422;11.100;2024-02-26T01:58:58;8.90;99.90
40556;DHT22;26250;45.422;11.100;2024-02-26T02:01:27;8.90;99.90
40556;DHT22;26250;45.422;11.100;2024-02-26T02:03:56;8.90;99.90
40556;DHT22;26250;45.422;11.100;2024-02-26T02:06:24;9.00;99.90
40556;DHT22;26250;45.422;11.100;2024-02-26T02:08:52;9.00;99.90
40556;DHT22;26250;45.422;11.100;2024-02-26T02:11:19;8.90;99.90
40556;DHT22;26250;45.422;11.100;2024-02-26T02:13:46;8.90;99.90
40556;DHT22;26250;45.422;11.100;2024-02-26T02:16:13;8.90;99.90
40556;DHT22;26250;45.422;11.100;2024-02-26T02:18:40;9.00;99.90
40556;DHT22;26250;45.422;11.100;2024-02-26T02:21:07;9.00;99.90
40556;DHT22;26250;45.422;11.100;2024-02-26T02:23:34;8.90;99.90
40556;DHT22;26250;45.422;11.100;2024-02-26T02:26:01;8.90;99.90
40556;DHT22;26250;45.422;11.100;2024-02-26T02:28:28;8.80;99.90
40556;DHT22;26250;45.422;11.100;2024-02-26T02:30:56;8.90;99.90
40556;DHT22;26250;45.422;11.100;2024-02-26T02:33:25;8.80;99.90
40556;DHT22;26250;45.422;11.100;2024-02-26T02:35:52;8.80;99.90
40556;DHT22;26250;45.422;11.100;2024-02-26T02:38:21;8.90;99.90
40556;DHT22;26250;45.422;11.100;2024-02-26T02:40:50;8.90;99.90
40556;DHT22;26250;45.422;11.100;2024-02-26T02:43:17;8.90;99.90
40556;DHT22;26250;45.422;11.100;2024-02-26T02:45:44;8.80;99.90
40556;DHT22;26250;45.422;11.100;2024-02-26T02:48:11;8.70;99.90
40556;DHT22;26250;45.422;11.100;2024-02-26T02:50:39;8.70;99.90
40556;DHT22;26250;45.422;11.100;2024-02-26T02:53:07;8.70;99.90
40556;DHT22;26250;45.422;11.100;2024-02-26T02:55:34;8.60;99.90
40556;DHT22;26250;45.422;11.100;2024-02-26T02:58:00;8.70;99.90
40556;DHT22;26250;45.422;11.100;2024-02-26T03:00:27;8.70;99.90
40556;DHT22;26250;45.422;11.100;2024-02-26T03:02:54;8.60;99.90
40556;DHT22;26250;45.422;11.100;2024-02-26T03:05:21;8.50;99.90
40556;DHT22;26250;45.422;11.100;2024-02-26T03:07:48;8.50;99.90
40556;DHT22;26250;45.422;11.100;2024-02-26T03:10:15;8.60;99.90
40556;DHT22;26250;45.422;11.100;2024-02-26T03:12:42;8.60;99.90
40556;DHT22;26250;45.422;11.100;2024-02-26T03:15:09;8.50;99.90
40556;DHT22;26250;45.422;11.100;2024-02-26T03:17:38;8.40;99.90
40556;DHT22;26250;45.422;11.100;2024-02-26T03:20:05;8.40;99.90
40556;DHT22;26250;45.422;11.100;2024-02-26T03:22:32;8.50;99.90
40556;DHT22;26250;45.422;11.100;2024-02-26T03:24:59;8.50;99.90
40556;DHT22;26250;45.422;11.100;2024-02-26T03:27:26;8.60;99.90
40556;DHT22;26250;45.422;11.100;2024-02-26T03:29:53;8.70;99.90
40556;DHT22;26250;45.422;11.100;2024-02-26T03:32:20;8.70;99.90
40556;DHT22;26250;45.422;11.100;2024-02-26T03:34:47;8.70;99.90
40556;DHT22;26250;45.422;11.100;2024-02-26T03:37:14;8.60;99.90
40556;DHT22;26250;45.422;11.100;2024-02-26T03:39:41;8.40;99.90
40556;DHT22;26250;45.422;11.100;2024-02-26T03:42:08;8.30;99.90
40556;DHT22;26250;45.422;11.100;2024-02-26T03:44:35;8.40;99.90
40556;DHT22;26250;45.422;11.100;2024-02-26T03:47:02;8.30;99.90
40556;DHT22;26250;45.422;11.100;2024-02-26T03:49:29;8.10;99.90
40556;DHT22;26250;45.422;11.100;2024-02-26T03:51:57;8.10;99.90
40556;DHT22;26250;45.422;11.100;2024-02-26T03:54:23;8.10;99.90
40556;DHT22;26250;45.422;11.100;2024-02-26T03:56:50;8.20;99.90
40556;DHT22;26250;45.422;11.100;2024-02-26T03:59:17;8.10;99.90
40556;DHT22;26250;45.422;11.100;2024-02-26T04:01:47;7.90;99.90
40556;DHT22;26250;45.422;11.100;2024-02-26T04:04:14;7.70;99.90
40556;DHT22;26250;45.422;11.100;2024-02-26T04:06:47;7.60;99.90
40556;DHT22;26250;45.422;11.100;2024-02-26T04:09:14;7.70;99.90
40556;DHT22;26250;45.422;11.100;2024-02-26T04:11:42;7.70;99.90
40556;DHT22;26250;45.422;11.100;2024-02-26T04:14:11;7.70;99.90
40556;DHT22;26250;45.422;11.100;2024-02-26T04:16:39;7.70;99.90
40556;DHT22;26250;45.422;11.100;2024-02-26T04:19:06;7.60;99.90
40556;DHT22;26250;45.422;11.100;2024-02-26T04:21:34;7.60;99.90
40556;DHT22;26250;45.422;11.100;2024-02-26T04:24:01;7.60;99.90
40556;DHT22;26250;45.422;11.100;2024-02-26T04:26:30;7.60;99.90
40556;DHT22;26250;45.422;11.100;2024-02-26T04:28:57;7.60;99.90
40556;DHT22;26250;45.422;11.100;2024-02-26T04:31:24;7.60;99.90
40556;DHT22;26250;45.422;11.100;2024-02-26T04:33:51;7.70;99.90
40556;DHT22;26250;45.422;11.100;2024-02-26T04:36:18;7.80;99.90
40556;DHT22;26250;45.422;11.100;2024-02-26T04:38:45;7.80;99.90
40556;DHT22;26250;45.422;11.100;2024-02-26T04:41:12;7.70;99.90
40556;DHT22;26250;45.422;11.100;2024-02-26T04:43:40;7.70;99.90
40556;DHT22;26250;45.422;11.100;2024-02-26T04:46:08;7.70;99.90
40556;DHT22;26250;45.422;11.100;2024-02-26T04:48:37;7.80;99.90
40556;DHT22;26250;45.422;11.100;2024-02-26T04:51:05;7.80;99.90
40556;DHT22;26250;45.422;11.100;2024-02-26T04:53:32;7.90;99.90
40556;DHT22;26250;45.422;11.100;2024-02-26T04:55:59;8.00;99.90
40556;DHT22;26250;45.422;11.100;2024-02-26T04:58:26;8.10;99.90
40556;DHT22;26250;45.422;11.100;2024-02-26T05:00:53;8.20;99.90
40556;DHT22;26250;45.422;11.100;2024-02-26T05:03:20;7.90;99.90
40556;DHT22;26250;45.422;11.100;2024-02-26T05:05:47;8.00;99.90
40556;DHT22;26250;45.422;11.100;2024-02-26T05:08:14;8.00;99.90
40556;DHT22;26250;45.422;11.100;2024-02-26T05:10:41;8.00;99.90
40556;DHT22;26250;45.422;11.100;2024-02-26T05:13:09;8.00;99.90
40556;DHT22;26250;45.422;11.100;2024-02-26T05:15:36;8.10;99.90
40556;DHT22;26250;45.422;11.100;2024-02-26T05:18:03;8.10;99.90
40556;DHT22;26250;45.422;11.100;2024-02-26T05:20:31;8.20;99.90
40556;DHT22;26250;45.422;11.100;2024-02-26T05:23:02;8.20;99.90
40556;DHT22;26250;45.422;11.100;2024-02-26T05:25:30;8.20;99.90
40556;DHT22;26250;45.422;11.100;2024-02-26T05:27:58;8.30;99.90
40556;DHT22;26250;45.422;11.100;2024-02-26T05:30:25;8.30;99.90
40556;DHT22;26250;45.422;11.100;2024-02-26T05:32:54;8.40;99.90
40556;DHT22;26250;45.422;11.100;2024-02-26T05:35:21;8.40;99.90
40556;DHT22;26250;45.422;11.100;2024-02-26T05:37:48;8.50;99.90
40556;DHT22;26250;45.422;11.100;2024-02-26T05:40:15;8.60;99.90
40556;DHT22;26250;45.422;11.100;2024-02-26T05:42:42;8.80;99.90
40556;DHT22;26250;45.422;11.100;2024-02-26T05:45:11;8.90;99.90
40556;DHT22;26250;45.422;11.100;2024-02-26T05:47:38;9.00;99.90
40556;DHT22;26250;45.422;11.100;2024-02-26T05:50:10;9.00;99.90
40556;DHT22;26250;45.422;11.100;2024-02-26T05:52:37;9.00;99.90
40556;DHT22;26250;45.422;11.100;2024-02-26T05:55:07;9.10;99.90
40556;DHT22;26250;45.422;11.100;2024-02-26T05:57:36;9.20;99.90
40556;DHT22;26250;45.422;11.100;2024-02-26T06:00:03;9.20;99.90
40556;DHT22;26250;45.422;11.100;2024-02-26T06:02:38;9.20;99.90
40556;DHT22;26250;45.422;11.100;2024-02-26T06:05:05;9.20;99.90
40556;DHT22;26250;45.422;11.100;2024-02-26T06:07:34;9.30;99.90
40556;DHT22;26250;45.422;11.100;2024-02-26T06:10:02;9.30;99.90
40556;DHT22;26250;45.422;11.100;2024-02-26T06:12:29;9.20;99.90
40556;DHT22;26250;45.422;11.100;2024-02-26T06:14:57;9.20;99.90
40556;DHT22;26250;45.422;11.100;2024-02-26T06:17:28;9.30;99.90
40556;DHT22;26250;45.422;11.100;2024-02-26T06:19:55;9.30;99.90
40556;DHT22;26250;45.422;11.100;2024-02-26T06:22:22;9.20;99.90
40556;DHT22;26250;45.422;11.100;2024-02-26T06:24:49;9.30;99.90
40556;DHT22;26250;45.422;11.100;2024-02-26T06:27:16;9.30;99.90
40556;DHT22;26250;45.422;11.100;2024-02-26T06:29:43;9.20;99.90
40556;DHT22;26250;45.422;11.100;2024-02-26T06:32:10;9.30;99.90
40556;DHT22;26250;45.422;11.100;2024-02-26T06:34:37;9.30;99.90
40556;DHT22;26250;45.422;11.100;2024-02-26T06:37:05;9.20;99.90
40556;DHT22;26250;45.422;11.100;2024-02-26T06:39:32;9.30;99.90
40556;DHT22;26250;45.422;11.100;2024-02-26T06:41:59;9.30;99.90
40556;DHT22;26250;45.422;11.100;2024-02-26T06:44:28;10.30;99.90
40556;DHT22;26250;45.422;11.100;2024-02-26T06:47:01;10.60;99.90
40556;DHT22;26250;45.422;11.100;2024-02-26T06:49:29;10.80;99.90
40556;DHT22;26250;45.422;11.100;2024-02-26T06:51:56;10.00;99.90
40556;DHT22;26250;45.422;11.100;2024-02-26T06:54:23;9.30;99.90
40556;DHT22;26250;45.422;11.100;2024-02-26T06:56:50;9.20;99.90
40556;DHT22;26250;45.422;11.100;2024-02-26T06:59:17;9.10;99.90
40556;DHT22;26250;45.422;11.100;2024-02-26T07:01:44;9.20;99.90
40556;DHT22;26250;45.422;11.100;2024-02-26T07:04:11;9.20;99.90
40556;DHT22;26250;45.422;11.100;2024-02-26T07:06:38;9.20;99.90
40556;DHT22;26250;45.422;11.100;2024-02-26T07:09:05;9.20;99.90
40556;DHT22;26250;45.422;11.100;2024-02-26T07:11:32;9.20;99.90
40556;DHT22;26250;45.422;11.100;2024-02-26T07:13:59;9.20;99.90
40556;DHT22;26250;45.422;11.100;2024-02-26T07:16:27;9.20;99.90
40556;DHT22;26250;45.422;11.100;2024-02-26T07:18:54;9.30;99.90
40556;DHT22;26250;45.422;11.100;2024-02-26T07:21:21;9.20;99.90
40556;DHT22;26250;45.422;11.100;2024-02-26T07:23:48;9.20;99.90
40556;DHT22;26250;45.422;11.100;2024-02-26T07:26:15;9.20;99.90
40556;DHT22;26250;45.422;11.100;2024-02-26T07:28:44;9.20;99.90
40556;DHT22;26250;45.422;11.100;2024-02-26T07:31:11;9.20;99.90
40556;DHT22;26250;45.422;11.100;2024-02-26T07:33:37;9.30;99.90
40556;DHT22;26250;45.422;11.100;2024-02-26T07:36:05;9.30;99.90
40556;DHT22;26250;45.422;11.100;2024-02-26T07:38:32;9.30;99.90
40556;DHT22;26250;45.422;11.100;2024-02-26T07:41:09;9.30;99.90
40556;DHT22;26250;45.422;11.100;2024-02-26T07:43:36;9.40;99.90
40556;DHT22;26250;45.422;11.100;2024-02-26T07:46:03;9.50;99.90
40556;DHT22;26250;45.422;11.100;2024-02-26T07:48:30;9.50;99.90
40556;DHT22;26250;45.422;11.100;2024-02-26T07:50:57;9.50;99.90
40556;DHT22;26250;45.422;11.100;2024-02-26T07:53:27;9.60;99.90
40556;DHT22;26250;45.422;11.100;2024-02-26T07:55:53;9.70;99.90
40556;DHT22;26250;45.422;11.100;2024-02-26T07:58:23;9.80;99.90
40556;DHT22;26250;45.422;11.100;2024-02-26T08:00:50;9.80;99.90
40556;DHT22;26250;45.422;11.100;2024-02-26T08:03:17;9.80;99.90
40556;DHT22;26250;45.422;11.100;2024-02-26T08:05:44;9.90;99.90
40556;DHT22;26250;45.422;11.100;2024-02-26T08:08:11;10.00;99.90
40556;DHT22;26250;45.422;11.100;2024-02-26T08:10:38;10.10;99.90
40556;DHT22;26250;45.422;11.100;2024-02-26T08:13:05;10.20;99.90
40556;DHT22;26250;45.422;11.100;2024-02-26T08:15:32;10.20;99.90
40556;DHT22;26250;45.422;11.100;2024-02-26T08:18:04;10.30;99.90
40556;DHT22;26250;45.422;11.100;2024-02-26T08:20:32;10.30;99.90
40556;DHT22;26250;45.422;11.100;2024-02-26T08:22:59;10.30;99.90
40556;DHT22;26250;45.422;11.100;2024-02-26T08:25:26;10.40;99.90
40556;DHT22;26250;45.422;11.100;2024-02-26T08:27:53;10.60;99.90
40556;DHT22;26250;45.422;11.100;2024-02-26T08:30:20;10.80;99.90
40556;DHT22;26250;45.422;11.100;2024-02-26T08:32:48;10.90;99.90
40556;DHT22;26250;45.422;11.100;2024-02-26T08:35:18;10.80;99.90
40556;DHT22;26250;45.422;11.100;2024-02-26T08:37:47;10.90;99.90
40556;DHT22;26250;45.422;11.100;2024-02-26T08:40:14;10.70;99.90
40556;DHT22;26250;45.422;11.100;2024-02-26T08:42:41;10.80;99.90
40556;DHT22;26250;45.422;11.100;2024-02-26T08:45:09;10.80;99.90
40556;DHT22;26250;45.422;11.100;2024-02-26T08:47:36;10.80;99.90
40556;DHT22;26250;45.422;11.100;2024-02-26T08:50:04;10.70;99.90
40556;DHT22;26250;45.422;11.100;2024-02-26T08:52:31;10.70;99.90
40556;DHT22;26250;45.422;11.100;2024-02-26T08:54:58;10.70;99.90
40556;DHT22;26250;45.422;11.100;2024-02-26T08:57:25;10.80;99.90
40556;DHT22;26250;45.422;11.100;2024-02-26T08:59:54;10.80;99.90
40556;DHT22;26250;45.422;11.100;2024-02-26T09:02:21;10.90;99.90
40556;DHT22;26250;45.422;11.100;2024-02-26T09:04:48;11.00;99.90
40556;DHT22;26250;45.422;11.100;2024-02-26T09:07:15;10.80;99.90
40556;DHT22;26250;45.422;11.100;2024-02-26T09:09:42;10.90;99.90
40556;DHT22;26250;45.422;11.100;2024-02-26T09:12:09;11.00;99.90
40556;DHT22;26250;45.422;11.100;2024-02-26T09:14:36;11.10;99.90
40556;DHT22;26250;45.422;11.100;2024-02-26T09:17:03;10.90;99.90
40556;DHT22;26250;45.422;11.100;2024-02-26T09:19:30;11.00;99.90
40556;DHT22;26250;45.422;11.100;2024-02-26T09:21:57;11.00;99.90
40556;DHT22;26250;45.422;11.100;2024-02-26T09:24:26;11.10;99.90
40556;DHT22;26250;45.422;11.100;2024-02-26T09:26:53;11.10;99.90
40556;DHT22;26250;45.422;11.100;2024-02-26T09:29:20;11.20;99.90
40556;DHT22;26250;45.422;11.100;2024-02-26T09:31:47;11.10;99.90
40556;DHT22;26250;45.422;11.100;2024-02-26T09:34:14;11.10;99.90
40556;DHT22;26250;45.422;11.100;2024-02-26T09:36:41;11.10;99.90
40556;DHT22;26250;45.422;11.100;2024-02-26T09:39:08;11.20;99.90
40556;DHT22;26250;45.422;11.100;2024-02-26T09:41:39;11.10;99.90
40556;DHT22;26250;45.422;11.100;2024-02-26T09:44:06;11.20;99.90
40556;DHT22;26250;45.422;11.100;2024-02-26T09:46:34;11.20;99.90
40556;DHT22;26250;45.422;11.100;2024-02-26T09:49:01;11.10;99.90
40556;DHT22;26250;45.422;11.100;2024-02-26T09:51:28;11.10;99.90
40556;DHT22;26250;45.422;11.100;2024-02-26T09:53:59;11.00;99.90
40556;DHT22;26250;45.422;11.100;2024-02-26T09:56:29;11.00;99.90
40556;DHT22;26250;45.422;11.100;2024-02-26T09:58:59;11.20;99.90
40556;DHT22;26250;45.422;11.100;2024-02-26T10:01:27;11.20;99.90
40556;DHT22;26250;45.422;11.100;2024-02-26T10:03:57;11.10;99.90
40556;DHT22;26250;45.422;11.100;2024-02-26T10:06:28;11.10;99.90
40556;DHT22;26250;45.422;11.100;2024-02-26T10:08:56;11.10;99.90
40556;DHT22;26250;45.422;11.100;2024-02-26T10:11:25;11.30;99.90
40556;DHT22;26250;45.422;11.100;2024-02-26T10:13:53;11.40;99.90
40556;DHT22;26250;45.422;11.100;2024-02-26T10:16:20;11.40;99.90
40556;DHT22;26250;45.422;11.100;2024-02-26T10:18:51;11.30;99.90
40556;DHT22;26250;45.422;11.100;2024-02-26T10:21:26;11.40;99.90
40556;DHT22;26250;45.422;11.100;2024-02-26T10:23:53;11.40;99.90
40556;DHT22;26250;45.422;11.100;2024-02-26T10:26:21;11.70;99.90
40556;DHT22;26250;45.422;11.100;2024-02-26T10:28:49;11.50;99.90
40556;DHT22;26250;45.422;11.100;2024-02-26T10:31:21;11.40;99.90
40556;DHT22;26250;45.422;11.100;2024-02-26T10:33:49;11.20;99.90
40556;DHT22;26250;45.422;11.100;2024-02-26T10:36:17;11.20;99.90
40556;DHT22;26250;45.422;11.100;2024-02-26T10:38:44;11.10;99.90
40556;DHT22;26250;45.422;11.100;2024-02-26T10:41:14;11.10;99.90
40556;DHT22;26250;45.422;11.100;2024-02-26T10:43:43;11.10;99.90
40556;DHT22;26250;45.422;11.100;2024-02-26T10:46:11;11.20;99.90
40556;DHT22;26250;45.422;11.100;2024-02-26T10:48:38;11.40;99.90
40556;DHT22;26250;45.422;11.100;2024-02-26T10:51:07;11.20;99.90
40556;DHT22;26250;45.422;11.100;2024-02-26T10:53:36;11.20;99.90
40556;DHT22;26250;45.422;11.100;2024-02-26T10:56:04;11.10;99.90
40556;DHT22;26250;45.422;11.100;2024-02-26T10:58:32;11.10;99.90
40556;DHT22;26250;45.422;11.100;2024-02-26T11:01:00;11.10;99.90
40556;DHT22;26250;45.422;11.100;2024-02-26T11:03:28;11.20;99.90
40556;DHT22;26250;45.422;11.100;2024-02-26T11:06:00;11.40;99.90
40556;DHT22;26250;45.422;11.100;2024-02-26T11:08:28;11.40;99.90
40556;DHT22;26250;45.422;11.100;2024-02-26T11:10:55;11.20;99.90
40556;DHT22;26250;45.422;11.100;2024-02-26T11:13:27;11.30;99.90
40556;DHT22;26250;45.422;11.100;2024-02-26T11:15:56;11.40;99.90
40556;DHT22;26250;45.422;11.100;2024-02-26T11:18:30;11.40;99.90
40556;DHT22;26250;45.422;11.100;2024-02-26T11:20:59;11.20;99.90
40556;DHT22;26250;45.422;11.100;2024-02-26T11:23:27;11.30;99.90
40556;DHT22;26250;45.422;11.100;2024-02-26T11:25:56;11.50;99.90
40556;DHT22;26250;45.422;11.100;2024-02-26T11:28:27;11.40;99.90
40556;DHT22;26250;45.422;11.100;2024-02-26T11:30:54;11.10;99.90
40556;DHT22;26250;45.422;11.100;2024-02-26T11:33:22;11.30;99.90
40556;DHT22;26250;45.422;11.100;2024-02-26T11:35:49;11.20;99.90
40556;DHT22;26250;45.422;11.100;2024-02-26T11:38:21;11.30;99.90
40556;DHT22;26250;45.422;11.100;2024-02-26T11:40:48;11.40;99.90
40556;DHT22;26250;45.422;11.100;2024-02-26T11:43:17;11.10;99.90
40556;DHT22;26250;45.422;11.100;2024-02-26T11:48:22;11.30;99.90
40556;DHT22;26250;45.422;11.100;2024-02-26T11:50:59;11.10;99.90
40556;DHT22;26250;45.422;11.100;2024-02-26T11:53:31;10.90;99.90
40556;DHT22;26250;45.422;11.100;2024-02-26T11:56:34;11.00;99.90
40556;DHT22;26250;45.422;11.100;2024-02-26T11:59:05;11.10;99.90
40556;DHT22;26250;45.422;11.100;2024-02-26T12:01:36;11.00;99.90
40556;DHT22;26250;45.422;11.100;2024-02-26T12:04:08;11.00;99.90
40556;DHT22;26250;45.422;11.100;2024-02-26T12:06:42;11.10;99.90
40556;DHT22;26250;45.422;11.100;2024-02-26T12:09:10;11.20;99.90
40556;DHT22;26250;45.422;11.100;2024-02-26T12:11:38;10.80;99.90
40556;DHT22;26250;45.422;11.100;2024-02-26T12:14:08;10.80;99.90
40556;DHT22;26250;45.422;11.100;2024-02-26T12:16:37;10.80;99.90
40556;DHT22;26250;45.422;11.100;2024-02-26T12:19:08;10.60;99.90
40556;DHT22;26250;45.422;11.100;2024-02-26T12:21:37;10.80;99.90
40556;DHT22;26250;45.422;11.100;2024-02-26T12:24:11;10.90;99.90
40556;DHT22;26250;45.422;11.100;2024-02-26T12:26:40;10.90;99.90
40556;DHT22;26250;45.422;11.100;2024-02-26T12:29:08;10.90;99.90
40556;DHT22;26250;45.422;11.100;2024-02-26T12:31:35;10.70;99.90
40556;DHT22;26250;45.422;11.100;2024-02-26T12:34:06;10.70;99.90
40556;DHT22;26250;45.422;11.100;2024-02-26T12:36:34;10.60;99.90
40556;DHT22;26250;45.422;11.100;2024-02-26T12:39:05;10.70;99.90
40556;DHT22;26250;45.422;11.100;2024-02-26T12:41:37;10.60;99.90
40556;DHT22;26250;45.422;11.100;2024-02-26T12:44:05;10.70;99.90
40556;DHT22;26250;45.422;11.100;2024-02-26T12:46:33;10.70;99.90
40556;DHT22;26250;45.422;11.100;2024-02-26T12:49:00;10.60;99.90
40556;DHT22;26250;45.422;11.100;2024-02-26T12:51:28;10.50;99.90
40556;DHT22;26250;45.422;11.100;2024-02-26T12:53:55;10.50;99.90
40556;DHT22;26250;45.422;11.100;2024-02-26T12:56:23;10.50;99.90
40556;DHT22;26250;45.422;11.100;2024-02-26T12:58:51;10.40;99.90
40556;DHT22;26250;45.422;11.100;2024-02-26T13:01:23;10.20;99.90
40556;DHT22;26250;45.422;11.100;2024-02-26T13:03:52;10.10;99.90
40556;DHT22;26250;45.422;11.100;2024-02-26T13:06:20;10.00;99.90
40556;DHT22;26250;45.422;11.100;2024-02-26T13:08:49;10.00;99.90
40556;DHT22;26250;45.422;11.100;2024-02-26T13:11:16;10.10;99.90
40556;DHT22;26250;45.422;11.100;2024-02-26T13:13:48;10.20;99.90
40556;DHT22;26250;45.422;11.100;2024-02-26T13:16:18;10.20;99.90
40556;DHT22;26250;45.422;11.100;2024-02-26T13:18:44;10.20;99.90
40556;DHT22;26250;45.422;11.100;2024-02-26T13:21:14;10.10;99.90
40556;DHT22;26250;45.422;11.100;2024-02-26T13:23:42;9.90;99.90
40556;DHT22;26250;45.422;11.100;2024-02-26T13:26:12;9.70;99.90
40556;DHT22;26250;45.422;11.100;2024-02-26T13:28:40;9.60;99.90
40556;DHT22;26250;45.422;11.100;2024-02-26T13:31:08;9.70;99.90
40556;DHT22;26250;45.422;11.100;2024-02-26T13:33:35;9.70;99.90
40556;DHT22;26250;45.422;11.100;2024-02-26T13:36:03;9.40;99.90
40556;DHT22;26250;45.422;11.100;2024-02-26T13:38:30;9.40;99.90
40556;DHT22;26250;45.422;11.100;2024-02-26T13:40:57;9.40;99.90
40556;DHT22;26250;45.422;11.100;2024-02-26T13:43:24;9.40;99.90
40556;DHT22;26250;45.422;11.100;2024-02-26T13:45:51;9.30;99.90
40556;DHT22;26250;45.422;11.100;2024-02-26T13:48:19;9.20;99.90
40556;DHT22;26250;45.422;11.100;2024-02-26T13:50:46;9.30;99.90
40556;DHT22;26250;45.422;11.100;2024-02-26T13:53:13;9.30;99.90
40556;DHT22;26250;45.422;11.100;2024-02-26T13:55:42;9.40;99.90
40556;DHT22;26250;45.422;11.100;2024-02-26T13:58:12;9.30;99.90
40556;DHT22;26250;45.422;11.100;2024-02-26T14:00:41;9.30;99.90
40556;DHT22;26250;45.422;11.100;2024-02-26T14:03:10;9.10;99.90
40556;DHT22;26250;45.422;11.100;2024-02-26T14:05:38;9.10;99.90
40556;DHT22;26250;45.422;11.100;2024-02-26T14:08:05;9.10;99.90
40556;DHT22;26250;45.422;11.100;2024-02-26T14:10:33;9.10;99.90
40556;DHT22;26250;45.422;11.100;2024-02-26T14:13:00;8.90;99.90
40556;DHT22;26250;45.422;11.100;2024-02-26T14:15:28;8.90;99.90
40556;DHT22;26250;45.422;11.100;2024-02-26T14:17:55;8.90;99.90
40556;DHT22;26250;45.422;11.100;2024-02-26T14:20:24;8.80;99.90
40556;DHT22;26250;45.422;11.100;2024-02-26T14:22:52;8.70;99.90
40556;DHT22;26250;45.422;11.100;2024-02-26T14:25:21;8.60;99.90
40556;DHT22;26250;45.422;11.100;2024-02-26T14:27:48;8.60;99.90
40556;DHT22;26250;45.422;11.100;2024-02-26T14:30:15;8.60;99.90
40556;DHT22;26250;45.422;11.100;2024-02-26T14:32:43;8.60;99.90
40556;DHT22;26250;45.422;11.100;2024-02-26T14:35:10;8.50;99.90
40556;DHT22;26250;45.422;11.100;2024-02-26T14:37:43;8.50;99.90
40556;DHT22;26250;45.422;11.100;2024-02-26T14:40:15;8.70;99.90
40556;DHT22;26250;45.422;11.100;2024-02-26T14:42:42;8.90;99.90
40556;DHT22;26250;45.422;11.100;2024-02-26T14:45:09;8.80;99.90
40556;DHT22;26250;45.422;11.100;2024-02-26T14:47:38;8.90;99.90
40556;DHT22;26250;45.422;11.100;2024-02-26T14:50:11;8.70;99.90
40556;DHT22;26250;45.422;11.100;2024-02-26T14:52:38;9.00;99.90
40556;DHT22;26250;45.422;11.100;2024-02-26T14:55:05;8.80;99.90
40556;DHT22;26250;45.422;11.100;2024-02-26T14:57:32;8.80;99.90
40556;DHT22;26250;45.422;11.100;2024-02-26T14:59:59;9.00;99.90
40556;DHT22;26250;45.422;11.100;2024-02-26T15:02:26;8.90;99.90
40556;DHT22;26250;45.422;11.100;2024-02-26T15:04:53;8.70;99.90
40556;DHT22;26250;45.422;11.100;2024-02-26T15:07:20;8.80;99.90
40556;DHT22;26250;45.422;11.100;2024-02-26T15:09:47;8.90;99.90
40556;DHT22;26250;45.422;11.100;2024-02-26T15:12:14;9.00;99.90
40556;DHT22;26250;45.422;11.100;2024-02-26T15:14:42;8.80;99.90
40556;DHT22;26250;45.422;11.100;2024-02-26T15:17:09;9.00;99.90
40556;DHT22;26250;45.422;11.100;2024-02-26T15:19:39;8.90;99.90
40556;DHT22;26250;45.422;11.100;2024-02-26T15:22:06;9.50;99.90
40556;DHT22;26250;45.422;11.100;2024-02-26T15:24:33;9.50;99.90
40556;DHT22;26250;45.422;11.100;2024-02-26T15:27:00;9.60;99.90
40556;DHT22;26250;45.422;11.100;2024-02-26T15:29:27;9.70;99.90
40556;DHT22;26250;45.422;11.100;2024-02-26T15:31:54;9.90;99.90